createdAt,value
2023-05-06T00:02:22.783Z,92.20
2023-05-06T00:04:49.466Z,93.58
2023-05-06T00:07:16.985Z,93.66
2023-05-06T00:09:43.600Z,93.05
2023-05-06T00:12:10.117Z,93.42
2023-05-06T00:14:36.725Z,93.23
2023-05-06T00:17:08.933Z,92.02
2023-05-06T00:19:35.413Z,93.79
2023-05-06T00:22:01.974Z,93.99
2023-05-06T00:24:28.473Z,93.96
2023-05-06T00:26:55.001Z,92.36
2023-05-06T00:29:22.562Z,93.94
2023-05-06T00:31:49.536Z,92.93
2023-05-06T00:34:18.188Z,93.88
2023-05-06T00:36:44.809Z,96.26
2023-05-06T00:39:11.612Z,94.57
2023-05-06T00:41:38.201Z,95.39
2023-05-06T00:44:04.678Z,98.66
2023-05-06T00:46:31.312Z,100.00
2023-05-06T00:48:57.939Z,100.00
2023-05-06T00:51:25.082Z,99.93
2023-05-06T00:53:51.687Z,100.00
2023-05-06T00:56:20.525Z,99.04
2023-05-06T00:58:48.097Z,100.00
2023-05-06T01:01:14.711Z,100.00
2023-05-06T01:03:42.082Z,100.00
2023-05-06T01:06:14.460Z,100.00
2023-05-06T01:09:08.706Z,100.00
2023-05-06T01:11:44.419Z,100.00
2023-05-06T01:14:33.533Z,100.00
2023-05-06T01:17:04.593Z,100.00
2023-05-06T01:19:49.003Z,100.00
2023-05-06T01:22:16.606Z,100.00
2023-05-06T01:24:44.459Z,100.00
2023-05-06T01:27:12.109Z,100.00
2023-05-06T01:29:41.929Z,100.00
2023-05-06T01:32:19.086Z,100.00
2023-05-06T01:35:27.213Z,100.00
2023-05-06T01:37:56.530Z,100.00
2023-05-06T01:40:25.536Z,100.00
2023-05-06T01:42:52.904Z,100.00
2023-05-06T01:45:21.866Z,100.00
2023-05-06T01:47:49.872Z,100.00
2023-05-06T01:50:17.629Z,100.00
2023-05-06T01:52:56.195Z,100.00
2023-05-06T01:55:22.651Z,100.00
2023-05-06T01:57:49.278Z,100.00
2023-05-06T02:00:18.148Z,100.00
2023-05-06T02:02:45.140Z,100.00
2023-05-06T02:05:11.834Z,100.00
2023-05-06T02:07:38.667Z,100.00
2023-05-06T02:10:06.025Z,100.00
2023-05-06T02:12:32.761Z,100.00
2023-05-06T02:14:59.456Z,100.00
2023-05-06T02:17:26.376Z,100.00
2023-05-06T02:19:53.178Z,100.00
2023-05-06T02:22:20.414Z,100.00
2023-05-06T02:24:47.259Z,100.00
2023-05-06T02:27:14.357Z,100.00
2023-05-06T02:29:41.423Z,100.00
2023-05-06T02:35:49.028Z,100.00
2023-05-06T02:38:18.836Z,100.00
2023-05-06T02:40:45.479Z,100.00
2023-05-06T02:43:12.157Z,100.00
2023-05-06T02:45:39.289Z,100.00
2023-05-06T02:48:06.335Z,100.00
2023-05-06T02:50:34.653Z,100.00
2023-05-06T02:53:01.171Z,100.00
2023-05-06T02:55:27.818Z,100.00
2023-05-06T02:57:54.302Z,100.00
2023-05-06T03:00:20.998Z,100.00
2023-05-06T03:02:47.618Z,100.00
2023-05-06T03:05:14.246Z,100.00
2023-05-06T03:07:41.452Z,100.00
2023-05-06T03:10:08.893Z,100.00
2023-05-06T03:12:35.372Z,100.00
2023-05-06T03:15:01.861Z,100.00
2023-05-06T03:17:28.374Z,100.00
2023-05-06T03:19:54.932Z,100.00
2023-05-06T03:22:21.513Z,100.00
2023-05-06T03:24:48.069Z,100.00
2023-05-06T03:27:14.721Z,100.00
2023-05-06T03:29:41.182Z,100.00
2023-05-06T03:32:07.630Z,100.00
2023-05-06T03:34:34.057Z,100.00
2023-05-06T03:37:00.595Z,100.00
2023-05-06T03:39:27.396Z,100.00
2023-05-06T03:41:53.895Z,100.00
2023-05-06T03:44:20.379Z,100.00
2023-05-06T03:46:46.920Z,100.00
2023-05-06T03:49:13.398Z,100.00
2023-05-06T03:51:39.939Z,100.00
2023-05-06T03:54:06.608Z,100.00
2023-05-06T03:56:33.461Z,100.00
2023-05-06T03:58:59.914Z,100.00
2023-05-06T04:01:26.370Z,100.00
2023-05-06T04:03:54.471Z,100.00
2023-05-06T04:06:21.127Z,100.00
2023-05-06T04:08:47.825Z,100.00
2023-05-06T04:11:14.578Z,100.00
2023-05-06T04:13:41.094Z,100.00
2023-05-06T04:16:07.823Z,100.00
2023-05-06T04:18:34.692Z,100.00
2023-05-06T04:21:01.467Z,100.00
2023-05-06T04:23:28.074Z,100.00
2023-05-06T04:25:54.676Z,100.00
2023-05-06T04:28:21.835Z,100.00
2023-05-06T04:30:48.414Z,100.00
2023-05-06T04:33:14.995Z,100.00
2023-05-06T04:35:51.223Z,100.00
2023-05-06T04:38:17.943Z,100.00
2023-05-06T04:40:44.520Z,100.00
2023-05-06T04:43:11.566Z,100.00
2023-05-06T04:45:40.130Z,100.00
2023-05-06T04:48:09.003Z,100.00
2023-05-06T04:50:35.526Z,100.00
2023-05-06T04:53:02.289Z,100.00
2023-05-06T04:55:28.874Z,100.00
2023-05-06T04:57:55.348Z,100.00
2023-05-06T05:00:22.699Z,100.00
2023-05-06T05:02:49.417Z,100.00
2023-05-06T05:05:16.179Z,100.00
2023-05-06T05:07:42.687Z,100.00
2023-05-06T05:10:10.389Z,100.00
2023-05-06T05:12:36.922Z,100.00
2023-05-06T05:15:03.844Z,100.00
2023-05-06T05:17:30.570Z,100.00
2023-05-06T05:19:57.034Z,100.00
2023-05-06T05:22:23.590Z,100.00
2023-05-06T05:24:52.310Z,100.00
2023-05-06T05:27:18.839Z,100.00
2023-05-06T05:29:45.369Z,100.00
2023-05-06T05:32:11.955Z,100.00
2023-05-06T05:34:38.425Z,100.00
2023-05-06T05:37:04.938Z,100.00
2023-05-06T05:39:31.898Z,100.00
2023-05-06T05:41:58.282Z,100.00
2023-05-06T05:44:24.779Z,100.00
2023-05-06T05:46:51.658Z,100.00
2023-05-06T05:49:18.098Z,100.00
2023-05-06T05:51:44.579Z,100.00
2023-05-06T05:54:11.201Z,100.00
2023-05-06T05:56:37.987Z,100.00
2023-05-06T05:59:04.464Z,100.00
2023-05-06T06:01:31.027Z,100.00
2023-05-06T06:03:59.279Z,100.00
2023-05-06T06:06:26.437Z,100.00
2023-05-06T06:08:52.854Z,100.00
2023-05-06T06:11:19.446Z,100.00
2023-05-06T06:13:46.133Z,100.00
2023-05-06T06:16:12.568Z,100.00
2023-05-06T06:18:39.066Z,100.00
2023-05-06T06:21:05.564Z,100.00
2023-05-06T06:23:32.019Z,100.00
2023-05-06T06:25:58.822Z,100.00
2023-05-06T06:28:26.175Z,100.00
2023-05-06T06:30:52.767Z,100.00
2023-05-06T06:33:19.499Z,100.00
2023-05-06T06:35:45.962Z,99.36
2023-05-06T06:38:12.371Z,100.00
2023-05-06T06:40:39.303Z,98.88
2023-05-06T06:43:05.757Z,98.36
2023-05-06T06:45:32.951Z,95.82
2023-05-06T06:47:59.578Z,96.01
2023-05-06T06:50:26.840Z,95.02
2023-05-06T06:52:53.284Z,95.05
2023-05-06T06:55:20.023Z,92.45
2023-05-06T06:57:46.589Z,91.97
2023-05-06T07:00:13.521Z,91.45
2023-05-06T07:02:40.220Z,90.20
2023-05-06T07:05:06.794Z,85.08
2023-05-06T07:07:33.415Z,84.21
2023-05-06T07:09:59.963Z,85.34
2023-05-06T07:12:27.111Z,83.25
2023-05-06T07:14:53.530Z,83.64
2023-05-06T07:17:20.060Z,82.75
2023-05-06T07:19:49.724Z,82.08
2023-05-06T07:22:16.193Z,83.76
2023-05-06T07:24:42.728Z,83.41
2023-05-06T07:27:09.171Z,83.23
2023-05-06T07:29:36.741Z,83.16
2023-05-06T07:32:03.651Z,82.22
2023-05-06T07:34:30.327Z,83.29
2023-05-06T07:36:57.284Z,83.33
2023-05-06T07:39:23.792Z,83.29
2023-05-06T07:41:50.263Z,83.75
2023-05-06T07:44:16.707Z,83.37
2023-05-06T07:46:43.361Z,84.17
2023-05-06T07:49:09.924Z,85.71
2023-05-06T07:51:36.624Z,85.74
2023-05-06T07:54:03.242Z,85.96
2023-05-06T07:56:29.938Z,85.28
2023-05-06T07:58:56.476Z,85.27
2023-05-06T08:01:23.052Z,85.69
2023-05-06T08:03:49.668Z,84.93
2023-05-06T08:06:16.152Z,83.99
2023-05-06T08:08:42.654Z,82.55
2023-05-06T08:11:09.065Z,84.42
2023-05-06T08:13:35.690Z,84.51
2023-05-06T08:16:02.379Z,84.42
2023-05-06T08:18:29.231Z,85.41
2023-05-06T08:20:55.904Z,83.80
2023-05-06T08:23:22.528Z,84.01
2023-05-06T08:25:49.007Z,82.06
2023-05-06T08:28:15.713Z,79.84
2023-05-06T08:30:42.515Z,79.79
2023-05-06T08:33:09.078Z,79.37
2023-05-06T08:35:35.770Z,81.31
2023-05-06T08:38:02.240Z,80.34
2023-05-06T08:40:32.542Z,80.23
2023-05-06T08:42:59.555Z,79.18
2023-05-06T08:45:29.215Z,76.92
2023-05-06T08:47:56.323Z,77.94
2023-05-06T08:50:23.478Z,76.95
2023-05-06T08:52:50.723Z,77.65
2023-05-06T08:55:17.433Z,78.73
2023-05-06T08:57:44.976Z,79.17
2023-05-06T09:00:12.015Z,79.68
2023-05-06T09:02:41.975Z,79.49
2023-05-06T09:05:10.177Z,78.41
2023-05-06T09:07:36.947Z,76.49
2023-05-06T09:10:22.455Z,78.08
2023-05-06T09:12:49.174Z,76.58
2023-05-06T09:15:16.316Z,78.27
2023-05-06T09:17:42.764Z,77.58
2023-05-06T09:20:11.804Z,78.72
2023-05-06T09:22:40.132Z,77.64
2023-05-06T09:25:07.368Z,77.34
2023-05-06T09:27:36.611Z,76.31
2023-05-06T09:30:08.343Z,75.06
2023-05-06T09:32:37.495Z,72.53
2023-05-06T09:35:07.000Z,74.34
2023-05-06T09:37:33.807Z,74.81
2023-05-06T09:40:01.114Z,74.85
2023-05-06T09:42:29.413Z,76.11
2023-05-06T09:45:01.944Z,74.71
2023-05-06T09:47:35.739Z,69.36
2023-05-06T09:50:03.482Z,62.67
2023-05-06T09:52:31.089Z,56.29
2023-05-06T09:54:58.081Z,53.66
2023-05-06T09:57:24.884Z,55.07
2023-05-06T09:59:54.347Z,53.03
2023-05-06T10:02:22.720Z,54.36
2023-05-06T10:04:49.954Z,56.79
2023-05-06T10:07:22.841Z,60.92
2023-05-06T10:09:51.052Z,62.53
2023-05-06T10:12:18.278Z,64.27
2023-05-06T10:14:44.721Z,67.40
2023-05-06T10:17:12.418Z,67.80
2023-05-06T10:19:46.332Z,68.94
2023-05-06T10:22:27.055Z,69.91
2023-05-06T10:25:04.484Z,69.89
2023-05-06T10:27:33.810Z,69.17
2023-05-06T10:30:00.929Z,68.79
2023-05-06T10:32:31.858Z,68.03
2023-05-06T10:35:09.000Z,70.43
2023-05-06T10:37:36.453Z,70.61
2023-05-06T10:40:04.810Z,72.11
2023-05-06T10:42:35.133Z,72.84
2023-05-06T10:45:04.024Z,73.23
2023-05-06T10:47:57.549Z,73.48
2023-05-06T10:50:25.570Z,73.07
2023-05-06T10:52:57.414Z,74.51
2023-05-06T10:55:37.844Z,73.42
2023-05-06T10:58:13.668Z,74.12
2023-05-06T11:00:40.999Z,73.33
2023-05-06T11:03:11.297Z,72.42
2023-05-06T11:05:48.982Z,70.72
2023-05-06T11:08:21.544Z,70.47
2023-05-06T11:10:48.055Z,71.38
2023-05-06T11:13:20.290Z,71.14
2023-05-06T11:15:47.361Z,71.44
2023-05-06T11:18:29.462Z,71.59
2023-05-06T11:21:04.948Z,72.20
2023-05-06T11:23:46.958Z,71.01
2023-05-06T11:26:13.849Z,71.10
2023-05-06T11:28:43.960Z,69.99
2023-05-06T11:31:12.516Z,68.42
2023-05-06T11:33:46.356Z,67.84
2023-05-06T11:36:19.660Z,63.98
2023-05-06T11:38:47.241Z,63.22
2023-05-06T11:41:14.166Z,62.27
2023-05-06T11:43:46.176Z,62.01
2023-05-06T11:46:12.906Z,62.25
2023-05-06T11:48:39.325Z,60.83
2023-05-06T11:51:05.813Z,61.83
2023-05-06T11:53:32.348Z,60.64
2023-05-06T11:55:58.926Z,59.05
2023-05-06T11:58:26.867Z,59.03
2023-05-06T12:00:59.033Z,58.91
2023-05-06T12:03:26.831Z,62.37
2023-05-06T12:05:53.635Z,62.02
2023-05-06T12:08:28.439Z,63.14
2023-05-06T12:10:57.698Z,63.28
2023-05-06T12:13:24.403Z,63.45
2023-05-06T12:15:51.547Z,64.35
2023-05-06T12:18:18.183Z,64.33
2023-05-06T12:20:44.700Z,63.33
2023-05-06T12:23:12.838Z,63.12
2023-05-06T12:25:40.085Z,61.70
2023-05-06T12:28:17.248Z,62.19
2023-05-06T12:30:44.334Z,61.69
2023-05-06T12:33:11.272Z,61.01
2023-05-06T12:35:38.846Z,60.76
2023-05-06T12:38:10.156Z,60.49
2023-05-06T12:40:37.021Z,62.01
2023-05-06T12:43:03.826Z,58.41
2023-05-06T12:45:30.705Z,58.37
2023-05-06T12:48:00.219Z,58.54
2023-05-06T12:50:44.200Z,57.99
2023-05-06T12:53:13.287Z,57.39
2023-05-06T12:55:41.772Z,56.17
2023-05-06T12:58:19.147Z,54.19
2023-05-06T13:00:46.238Z,55.41
2023-05-06T13:03:13.494Z,56.23
2023-05-06T13:05:39.970Z,57.38
2023-05-06T13:08:06.706Z,58.10
2023-05-06T13:10:33.094Z,59.13
2023-05-06T13:12:59.637Z,58.75
2023-05-06T13:15:27.011Z,58.46
2023-05-06T13:17:53.516Z,57.30
2023-05-06T13:20:20.251Z,57.72
2023-05-06T13:22:54.329Z,58.25
2023-05-06T13:25:21.890Z,58.80
2023-05-06T13:27:48.545Z,60.46
2023-05-06T13:30:15.045Z,60.22
2023-05-06T13:32:41.457Z,60.84
2023-05-06T13:35:08.482Z,62.80
2023-05-06T13:37:35.379Z,62.01
2023-05-06T13:40:01.836Z,59.50
2023-05-06T13:42:28.385Z,59.85
2023-05-06T13:44:55.094Z,60.64
2023-05-06T13:47:22.732Z,62.03
2023-05-06T13:49:49.220Z,59.65
2023-05-06T13:52:15.800Z,61.34
2023-05-06T13:54:42.381Z,62.94
2023-05-06T13:57:08.834Z,62.98
2023-05-06T13:59:35.374Z,62.35
2023-05-06T14:02:02.432Z,63.04
2023-05-06T14:04:28.991Z,66.15
2023-05-06T14:06:55.891Z,61.83
2023-05-06T14:09:22.350Z,62.41
2023-05-06T14:11:48.873Z,62.76
2023-05-06T14:14:15.939Z,61.73
2023-05-06T14:16:42.425Z,60.78
2023-05-06T14:19:08.913Z,61.96
2023-05-06T14:21:36.720Z,60.74
2023-05-06T14:24:04.304Z,59.95
2023-05-06T14:26:32.200Z,60.75
2023-05-06T14:28:58.602Z,59.45
2023-05-06T14:31:26.567Z,59.15
2023-05-06T14:33:53.136Z,58.46
2023-05-06T14:36:19.938Z,59.66
2023-05-06T14:38:46.334Z,60.51
2023-05-06T14:41:12.827Z,60.87
2023-05-06T14:43:39.215Z,61.84
2023-05-06T14:46:05.708Z,62.27
2023-05-06T14:48:32.276Z,63.76
2023-05-06T14:50:59.560Z,64.29
2023-05-06T14:53:26.264Z,64.62
2023-05-06T14:55:52.732Z,63.89
2023-05-06T14:58:19.798Z,63.27
2023-05-06T15:00:46.269Z,61.96
2023-05-06T15:03:12.705Z,62.93
2023-05-06T15:05:39.210Z,62.93
2023-05-06T15:08:05.979Z,64.44
2023-05-06T15:10:32.479Z,63.90
2023-05-06T15:12:59.132Z,61.61
2023-05-06T15:15:25.674Z,62.00
2023-05-06T15:17:52.388Z,61.16
2023-05-06T15:20:19.040Z,63.17
2023-05-06T15:22:45.990Z,63.40
2023-05-06T15:25:16.827Z,64.04
2023-05-06T15:27:49.186Z,64.82
2023-05-06T15:30:15.708Z,66.85
2023-05-06T15:32:42.225Z,66.90
2023-05-06T15:35:09.109Z,66.23
2023-05-06T15:37:35.930Z,66.84
2023-05-06T15:40:02.520Z,65.63
2023-05-06T15:42:29.454Z,66.26
2023-05-06T15:44:55.868Z,66.08
2023-05-06T15:47:22.329Z,68.51
2023-05-06T15:49:54.338Z,66.36
2023-05-06T15:52:22.888Z,64.19
2023-05-06T15:54:50.086Z,66.26
2023-05-06T15:57:17.224Z,66.09
2023-05-06T15:59:43.673Z,65.66
2023-05-06T16:04:39.637Z,66.23
2023-05-06T16:07:06.297Z,64.80
2023-05-06T16:09:32.747Z,65.34
2023-05-06T16:11:59.394Z,66.19
2023-05-06T16:14:25.901Z,65.65
2023-05-06T16:16:52.555Z,67.26
2023-05-06T16:19:19.200Z,66.79
2023-05-06T16:21:45.726Z,67.28
2023-05-06T16:24:12.229Z,68.40
2023-05-06T16:26:39.027Z,71.34
2023-05-06T16:29:05.701Z,72.96
2023-05-06T16:31:33.228Z,72.70
2023-05-06T16:33:59.660Z,73.29
2023-05-06T16:36:27.548Z,72.72
2023-05-06T16:38:54.764Z,72.65
2023-05-06T16:41:21.474Z,72.62
2023-05-06T16:43:47.908Z,71.08
2023-05-06T16:46:14.642Z,69.79
2023-05-06T16:48:41.251Z,69.90
2023-05-06T16:51:07.938Z,70.75
2023-05-06T16:53:34.334Z,69.27
2023-05-06T16:56:01.735Z,67.84
2023-05-06T16:58:29.888Z,67.44
2023-05-06T17:00:56.527Z,67.84
2023-05-06T17:03:23.126Z,68.40
2023-05-06T17:05:49.708Z,69.12
2023-05-06T17:08:16.612Z,68.54
2023-05-06T17:10:43.782Z,69.92
2023-05-06T17:13:10.650Z,69.10
2023-05-06T17:15:37.219Z,67.68
2023-05-06T17:18:03.975Z,68.37
2023-05-06T17:20:31.265Z,69.22
2023-05-06T17:22:57.812Z,69.04
2023-05-06T17:25:24.338Z,68.90
2023-05-06T17:27:51.008Z,68.50
2023-05-06T17:30:17.849Z,69.35
2023-05-06T17:32:44.391Z,70.14
2023-05-06T17:35:11.620Z,69.66
2023-05-06T17:37:38.912Z,70.83
2023-05-06T17:40:07.844Z,71.01
2023-05-06T17:42:34.684Z,71.30
2023-05-06T17:45:01.313Z,72.00
2023-05-06T17:47:29.944Z,71.03
2023-05-06T17:49:56.846Z,73.98
2023-05-06T17:52:25.335Z,74.43
2023-05-06T17:55:01.072Z,75.10
2023-05-06T17:57:37.600Z,75.61
2023-05-06T18:00:04.593Z,76.08
2023-05-06T18:02:31.193Z,76.33
2023-05-06T18:04:57.644Z,76.55
2023-05-06T18:07:24.070Z,77.03
2023-05-06T18:09:52.090Z,76.29
2023-05-06T18:12:21.753Z,75.96
2023-05-06T18:14:48.149Z,76.93
2023-05-06T18:17:14.543Z,76.78
2023-05-06T18:19:41.079Z,76.81
2023-05-06T18:22:07.477Z,76.97
2023-05-06T18:24:34.673Z,77.98
2023-05-06T18:27:01.850Z,77.86
2023-05-06T18:29:30.257Z,78.20
2023-05-06T18:31:57.298Z,77.53
2023-05-06T18:34:23.797Z,77.65
2023-05-06T18:36:50.293Z,76.66
2023-05-06T18:39:17.173Z,78.26
2023-05-06T18:41:44.371Z,78.77
2023-05-06T18:44:11.002Z,77.96
2023-05-06T18:46:37.412Z,78.22
2023-05-06T18:49:03.873Z,77.41
2023-05-06T18:51:31.903Z,77.58
2023-05-06T18:53:58.575Z,77.48
2023-05-06T18:56:25.331Z,78.33
2023-05-06T18:58:52.238Z,78.55
2023-05-06T19:01:18.885Z,78.69
2023-05-06T19:03:45.496Z,78.19
2023-05-06T19:06:12.480Z,79.47
2023-05-06T19:08:39.127Z,78.53
2023-05-06T19:11:05.696Z,80.01
2023-05-06T19:13:32.186Z,79.52
2023-05-06T19:15:58.810Z,79.51
2023-05-06T19:18:25.374Z,81.14
2023-05-06T19:20:52.812Z,81.00
2023-05-06T19:23:20.131Z,81.22
2023-05-06T19:25:46.636Z,81.76
2023-05-06T19:28:13.194Z,80.26
2023-05-06T19:30:40.028Z,81.82
2023-05-06T19:33:07.015Z,82.07
2023-05-06T19:35:33.762Z,81.70
2023-05-06T19:38:00.399Z,80.80
2023-05-06T19:40:27.110Z,80.89
2023-05-06T19:42:53.993Z,82.07
2023-05-06T19:45:20.840Z,80.93
2023-05-06T19:47:47.537Z,80.38
2023-05-06T19:50:14.150Z,81.39
2023-05-06T19:52:40.713Z,80.75
2023-05-06T19:55:07.772Z,81.20
2023-05-06T19:57:34.358Z,81.47
2023-05-06T20:00:05.189Z,79.75
2023-05-06T20:02:32.847Z,80.61
2023-05-06T20:05:00.340Z,81.31
2023-05-06T20:07:27.096Z,81.53
2023-05-06T20:09:55.530Z,81.95
2023-05-06T20:12:23.020Z,82.81
2023-05-06T20:14:49.730Z,83.23
2023-05-06T20:17:16.691Z,84.77
2023-05-06T20:19:43.128Z,85.46
2023-05-06T20:22:09.789Z,86.11
2023-05-06T20:24:37.237Z,86.57
2023-05-06T20:27:03.767Z,86.78
2023-05-06T20:29:30.776Z,86.16
2023-05-06T20:31:57.441Z,86.56
2023-05-06T20:34:23.985Z,86.13
2023-05-06T20:36:51.533Z,86.07
2023-05-06T20:39:18.183Z,86.94
2023-05-06T20:41:44.757Z,87.05
2023-05-06T20:44:11.423Z,86.22
2023-05-06T20:46:38.045Z,87.02
2023-05-06T20:49:04.573Z,86.72
2023-05-06T20:51:31.174Z,85.76
2023-05-06T20:53:59.008Z,86.03
2023-05-06T20:56:27.858Z,85.47
2023-05-06T20:58:55.222Z,86.70
2023-05-06T21:01:23.392Z,86.51
2023-05-06T21:03:50.607Z,86.57
2023-05-06T21:06:18.904Z,85.70
2023-05-06T21:08:46.506Z,86.22
2023-05-06T21:11:13.692Z,85.98
2023-05-06T21:13:41.753Z,86.68
2023-05-06T21:16:08.338Z,87.25
2023-05-06T21:18:35.169Z,86.71
2023-05-06T21:21:01.889Z,85.94
2023-05-06T21:23:28.419Z,85.39
2023-05-06T21:25:54.862Z,86.40
2023-05-06T21:28:21.323Z,85.79
2023-05-06T21:30:48.022Z,85.33
2023-05-06T21:33:14.636Z,85.53
2023-05-06T21:35:41.462Z,85.78
2023-05-06T21:38:07.987Z,85.09
2023-05-06T21:40:34.440Z,84.63
2023-05-06T21:43:01.022Z,84.63
2023-05-06T21:45:27.569Z,85.29
2023-05-06T21:47:54.092Z,86.20
2023-05-06T21:50:20.687Z,86.88
2023-05-06T21:52:47.147Z,87.16
2023-05-06T21:55:13.917Z,87.14
2023-05-06T21:57:40.845Z,86.69
2023-05-06T22:00:12.093Z,88.22
2023-05-06T22:02:40.889Z,88.11
2023-05-06T22:05:08.775Z,89.66
2023-05-06T22:07:35.912Z,89.06
2023-05-06T22:10:04.564Z,89.54
2023-05-06T22:12:31.822Z,89.96
2023-05-06T22:14:58.298Z,89.43
2023-05-06T22:17:24.992Z,90.02
2023-05-06T22:19:52.128Z,90.19
2023-05-06T22:22:19.511Z,89.78
2023-05-06T22:24:48.296Z,89.79
2023-05-06T22:27:14.976Z,90.19
2023-05-06T22:29:41.573Z,89.67
2023-05-06T22:32:08.267Z,89.57
2023-05-06T22:34:35.105Z,90.29
2023-05-06T22:37:08.063Z,91.18
2023-05-06T22:39:34.495Z,91.97
2023-05-06T22:42:01.746Z,92.52
2023-05-06T22:44:28.243Z,91.68
2023-05-06T22:46:54.975Z,91.76
2023-05-06T22:49:21.818Z,91.71
2023-05-06T22:51:48.268Z,91.01
2023-05-06T22:54:15.033Z,90.78
2023-05-06T22:56:41.539Z,90.56
2023-05-06T22:59:07.943Z,90.47
2023-05-06T23:01:34.526Z,90.44
2023-05-06T23:04:01.075Z,90.66
2023-05-06T23:06:27.954Z,90.40
2023-05-06T23:08:54.375Z,90.51
2023-05-06T23:11:20.933Z,90.58
2023-05-06T23:13:47.778Z,91.24
2023-05-06T23:16:15.522Z,91.29
2023-05-06T23:18:42.198Z,91.43
2023-05-06T23:21:09.204Z,91.41
2023-05-06T23:23:35.843Z,91.14
2023-05-06T23:26:02.497Z,91.36
2023-05-06T23:28:29.480Z,92.33
2023-05-06T23:30:56.403Z,91.90
2023-05-06T23:33:23.073Z,90.67
2023-05-06T23:35:49.572Z,91.69
2023-05-06T23:38:16.342Z,91.74
2023-05-06T23:40:43.420Z,92.47
2023-05-06T23:43:11.349Z,92.54
2023-05-06T23:45:37.921Z,93.35
2023-05-06T23:48:05.298Z,93.18
2023-05-06T23:50:31.890Z,93.19
2023-05-06T23:52:58.288Z,94.67
2023-05-06T23:55:26.320Z,95.16
2023-05-06T23:57:53.037Z,95.51
